Time;durP1;ratioP1;P1;durP2;ratioP2;P2;SDS_P1;SDS_P2;PMS_P1;PMS_P2;Temp;Humidity;BMP_temperature;BMP_pressure;BME280_temperature;BME280_humidity;BME280_pressure;Samples;Min_cycle;Max_cycle;Signal;HPM_P1;HPM_P2
2023/05/12 00:00:47;;;;;;;21.73;13.38;;;17.40;87.00;;;;;;3972450;29;20066;-57
2023/05/12 00:03:28;;;;;;;17.05;12.45;;;17.40;87.00;;;;;;3951890;29;20065;-55
2023/05/12 00:06:09;;;;;;;17.40;12.05;;;17.40;87.10;;;;;;3971728;29;20062;-55
2023/05/12 00:08:51;;;;;;;20.27;13.38;;;17.40;87.20;;;;;;3972391;29;20168;-57
2023/05/12 00:11:31;;;;;;;;;;;17.40;87.60;;;;;;3972845;29;20062;-56
2023/05/12 00:14:12;;;;;;;18.08;12.02;;;17.40;87.50;;;;;;3960801;29;19949;-54
2023/05/12 00:16:54;;;;;;;19.30;12.73;;;17.40;87.60;;;;;;3960300;29;20560;-55
2023/05/12 00:19:35;;;;;;;18.75;13.23;;;17.40;87.80;;;;;;3971944;29;20191;-56
2023/05/12 00:22:16;;;;;;;21.45;13.15;;;17.40;88.00;;;;;;3972179;29;20529;-56
2023/05/12 00:24:57;;;;;;;19.05;13.45;;;17.40;88.00;;;;;;3971685;29;20062;-55
2023/05/12 00:27:38;;;;;;;22.92;15.25;;;17.40;88.00;;;;;;3956512;29;20107;-57
2023/05/12 00:30:19;;;;;;;23.13;15.10;;;17.40;88.10;;;;;;3956657;29;20054;-57
2023/05/12 00:33:02;;;;;;;26.02;16.48;;;17.40;88.10;;;;;;3956808;29;20207;-56
2023/05/12 00:35:44;;;;;;;24.40;16.92;;;17.40;88.10;;;;;;3951873;29;20069;-55
2023/05/12 00:38:25;;;;;;;;;;;17.40;88.00;;;;;;3960592;29;20066;-56
2023/05/12 00:41:05;;;;;;;23.33;14.82;;;17.40;88.00;;;;;;3971054;29;20446;-56
2023/05/12 00:43:47;;;;;;;19.08;14.00;;;17.40;88.10;;;;;;3949712;29;20127;-57
2023/05/12 00:46:27;;;;;;;19.60;13.65;;;17.40;89.00;;;;;;3971410;29;20058;-58
2023/05/12 00:49:10;;;;;;;17.58;12.82;;;17.40;88.30;;;;;;3959958;29;20446;-58
2023/05/12 00:51:51;;;;;;;17.83;13.32;;;17.40;89.20;;;;;;3970808;29;20514;-57
2023/05/12 00:54:32;;;;;;;;;;;17.40;88.40;;;;;;3971271;29;20065;-58
2023/05/12 00:57:14;;;;;;;16.80;12.50;;;17.40;88.40;;;;;;3971514;29;19981;-59
2023/05/12 00:59:55;;;;;;;17.67;13.27;;;17.40;89.50;;;;;;3971601;29;20490;-59
2023/05/12 01:02:37;;;;;;;22.48;14.52;;;17.40;88.70;;;;;;3960557;29;20062;-58
2023/05/12 01:05:19;;;;;;;17.88;13.35;;;17.40;88.60;;;;;;3966197;29;20062;-59
2023/05/12 01:08:01;;;;;;;19.40;13.65;;;17.40;88.60;;;;;;3959845;29;20191;-59
2023/05/12 01:10:44;;;;;;;18.50;12.77;;;17.40;88.70;;;;;;3960440;29;20135;-54
2023/05/12 01:13:28;;;;;;;19.77;13.80;;;17.40;88.60;;;;;;3960089;29;20053;-56
2023/05/12 01:16:12;;;;;;;17.35;13.35;;;17.40;88.40;;;;;;3960345;29;20416;-56
2023/05/12 01:18:55;;;;;;;18.67;13.95;;;17.40;88.30;;;;;;3960315;29;20067;-58
2023/05/12 01:21:38;;;;;;;17.63;12.85;;;17.40;89.50;;;;;;3959975;29;20564;-57
2023/05/12 01:24:23;;;;;;;22.00;14.10;;;17.40;88.70;;;;;;3959664;29;20069;-57
2023/05/12 01:27:06;;;;;;;21.10;14.60;;;17.40;88.90;;;;;;3971026;29;20617;-57
2023/05/12 01:29:49;;;;;;;20.80;13.85;;;17.40;88.80;;;;;;3971352;29;20526;-57
2023/05/12 01:32:31;;;;;;;19.80;14.23;;;17.40;88.70;;;;;;3960016;29;20188;-57
2023/05/12 01:35:12;;;;;;;18.92;14.93;;;17.30;88.70;;;;;;3955635;29;20388;-54
2023/05/12 01:37:58;;;;;;;18.63;14.05;;;17.40;88.80;;;;;;3962439;29;20522;-56
2023/05/12 01:40:39;;;;;;;22.70;14.23;;;17.40;88.80;;;;;;3971510;29;20130;-54
2023/05/12 01:43:22;;;;;;;22.67;16.38;;;17.30;88.80;;;;;;3970306;29;20604;-57
2023/05/12 01:46:02;;;;;;;21.48;14.40;;;17.40;89.00;;;;;;3970926;29;20411;-56
2023/05/12 01:48:43;;;;;;;21.23;14.77;;;17.40;89.00;;;;;;3970413;29;20696;-57
2023/05/12 01:51:24;;;;;;;19.70;13.70;;;17.40;89.00;;;;;;3971313;29;20061;-55
2023/05/12 01:54:06;;;;;;;20.42;15.00;;;17.30;88.80;;;;;;3970460;29;20082;-56
2023/05/12 01:56:51;;;;;;;21.00;15.30;;;17.30;88.70;;;;;;3949653;29;20062;-57
2023/05/12 01:59:33;;;;;;;24.60;13.95;;;17.30;88.50;;;;;;3959848;29;20058;-57
2023/05/12 02:02:16;;;;;;;21.98;14.68;;;17.30;88.60;;;;;;3959621;29;20527;-57
2023/05/12 02:04:57;;;;;;;25.50;14.90;;;17.30;88.60;;;;;;3970415;29;20062;-57
2023/05/12 02:07:38;;;;;;;21.92;14.60;;;17.30;88.50;;;;;;3960051;29;20135;-56
2023/05/12 02:10:19;;;;;;;19.02;13.93;;;17.30;89.40;;;;;;3970268;29;20511;-58
2023/05/12 02:13:01;;;;;;;19.40;13.52;;;17.30;88.30;;;;;;3959009;29;20054;-57
2023/05/12 02:15:44;;;;;;;23.42;13.15;;;17.30;88.50;;;;;;3970197;29;20460;-58
2023/05/12 02:18:25;;;;;;;21.02;14.07;;;17.30;88.20;;;;;;3960020;29;20061;-58
2023/05/12 02:21:07;;;;;;;18.70;13.82;;;17.30;88.50;;;;;;3962959;29;20126;-55
2023/05/12 02:23:48;;;;;;;18.63;12.93;;;17.30;88.70;;;;;;3957893;29;20112;-53
2023/05/12 02:26:28;;;;;;;21.30;12.73;;;17.30;89.60;;;;;;3958182;29;20139;-56
2023/05/12 02:29:10;;;;;;;21.23;13.23;;;17.30;88.80;;;;;;3959360;29;20058;-56
2023/05/12 02:31:53;;;;;;;18.92;13.15;;;17.30;88.90;;;;;;3972428;29;20360;-58
2023/05/12 02:34:34;;;;;;;20.58;13.70;;;17.30;89.10;;;;;;3972219;29;20062;-57
2023/05/12 02:37:15;;;;;;;20.38;13.18;;;17.30;89.10;;;;;;3962258;29;20187;-57
2023/05/12 02:39:56;;;;;;;21.40;13.43;;;17.30;89.00;;;;;;3962562;29;20058;-58
2023/05/12 02:42:38;;;;;;;24.83;14.23;;;17.30;88.90;;;;;;3972797;29;20192;-57
2023/05/12 02:45:20;;;;;;;18.63;12.93;;;17.30;88.80;;;;;;3972418;29;20532;-57
2023/05/12 02:48:02;;;;;;;20.57;13.43;;;17.30;88.80;;;;;;3972788;29;20062;-56
2023/05/12 02:50:43;;;;;;;20.58;13.82;;;17.30;88.70;;;;;;3972709;29;20078;-56
2023/05/12 02:53:25;;;;;;;19.05;13.48;;;17.30;88.70;;;;;;3962121;29;20062;-56
2023/05/12 02:56:07;;;;;;;21.10;12.88;;;17.30;88.80;;;;;;3961942;29;20066;-57
2023/05/12 02:58:48;;;;;;;17.38;12.73;;;17.30;88.80;;;;;;3962014;29;20053;-56
2023/05/12 03:01:28;;;;;;;23.50;13.80;;;17.30;89.00;;;;;;3972957;29;20070;-55
2023/05/12 03:04:11;;;;;;;20.50;13.07;;;17.30;89.00;;;;;;3961429;29;20054;-57
2023/05/12 03:06:52;;;;;;;17.45;13.10;;;17.30;88.90;;;;;;3972873;29;20415;-57
2023/05/12 03:09:33;;;;;;;17.98;13.15;;;17.30;88.80;;;;;;3961925;29;20526;-57
2023/05/12 03:12:14;;;;;;;21.00;12.73;;;17.30;89.00;;;;;;3958276;29;20077;-56
2023/05/12 03:14:55;;;;;;;21.05;13.48;;;17.30;89.00;;;;;;3958356;29;20071;-55
2023/05/12 03:17:36;;;;;;;20.95;13.52;;;17.30;89.00;;;;;;3948193;29;20054;-57
2023/05/12 03:20:18;;;;;;;19.17;12.68;;;17.30;89.10;;;;;;3948232;29;20140;-56
2023/05/12 03:23:00;;;;;;;18.88;12.93;;;17.30;89.10;;;;;;3973096;29;20077;-55
2023/05/12 03:25:41;;;;;;;24.90;15.77;;;17.30;89.10;;;;;;3972991;29;20057;-56
2023/05/12 03:28:23;;;;;;;17.10;13.30;;;17.30;89.90;;;;;;3972030;29;20062;-56
2023/05/12 03:31:04;;;;;;;17.25;12.55;;;17.30;89.90;;;;;;3960961;29;20061;-56
2023/05/12 03:33:45;;;;;;;19.52;13.32;;;17.30;88.80;;;;;;3961445;29;20188;-58
2023/05/12 03:36:28;;;;;;;16.98;12.98;;;17.30;88.60;;;;;;3936178;29;20085;-57
2023/05/12 03:39:09;;;;;;;19.55;13.52;;;17.30;88.50;;;;;;3957739;29;20065;-57
2023/05/12 03:41:50;;;;;;;23.23;14.43;;;17.30;89.50;;;;;;3961200;29;20066;-56
2023/05/12 03:44:31;;;;;;;19.92;14.02;;;17.30;88.80;;;;;;3957814;29;20556;-56
2023/05/12 03:47:12;;;;;;;20.00;13.45;;;17.30;88.80;;;;;;3957055;29;20506;-57
2023/05/12 03:49:53;;;;;;;18.85;13.70;;;17.30;88.90;;;;;;3957192;29;20065;-57
2023/05/12 03:52:37;;;;;;;;;;;17.30;89.00;;;;;;3961557;29;20126;-56
2023/05/12 03:55:18;;;;;;;21.23;14.35;;;17.30;89.00;;;;;;3972370;29;20062;-57
2023/05/12 03:58:00;;;;;;;18.52;13.10;;;17.30;89.20;;;;;;3971944;29;20058;-56
2023/05/12 04:00:40;;;;;;;22.52;15.05;;;17.30;89.10;;;;;;3956396;29;20494;-58
2023/05/12 04:03:21;;;;;;;21.67;14.35;;;17.30;89.20;;;;;;3957503;29;20100;-57
2023/05/12 04:06:03;;;;;;;24.38;14.82;;;17.30;89.10;;;;;;3956607;30;20062;-56
2023/05/12 04:08:45;;;;;;;17.92;13.88;;;17.30;89.10;;;;;;3968569;29;20139;-56
2023/05/12 04:11:26;;;;;;;20.38;13.40;;;17.30;89.10;;;;;;3971793;29;20054;-56
2023/05/12 04:14:07;;;;;;;20.90;14.52;;;17.30;89.10;;;;;;3960509;29;20580;-57
2023/05/12 04:16:49;;;;;;;20.98;14.18;;;17.30;89.20;;;;;;3971802;29;20616;-57
2023/05/12 04:19:30;;;;;;;26.23;15.13;;;17.30;89.10;;;;;;3961098;29;20110;-57
2023/05/12 04:22:11;;;;;;;22.13;14.90;;;17.30;89.00;;;;;;3958549;29;20518;-55
2023/05/12 04:24:53;;;;;;;;;;;17.30;89.00;;;;;;3971049;29;20054;-56
2023/05/12 04:27:35;;;;;;;21.90;14.23;;;17.30;88.90;;;;;;3960488;29;20078;-57
2023/05/12 04:30:16;;;;;;;22.63;14.33;;;17.30;89.00;;;;;;3960899;29;20188;-57
2023/05/12 04:32:58;;;;;;;21.17;14.30;;;17.30;88.80;;;;;;3960229;29;20503;-57
2023/05/12 04:35:39;;;;;;;20.77;14.77;;;17.30;88.90;;;;;;3971410;29;20058;-57
2023/05/12 04:38:21;;;;;;;25.90;14.82;;;17.30;89.90;;;;;;3959921;29;20175;-57
2023/05/12 04:41:03;;;;;;;20.55;14.63;;;17.30;89.10;;;;;;3971322;29;20196;-57
2023/05/12 04:43:44;;;;;;;19.35;14.07;;;17.30;89.10;;;;;;3960237;29;20053;-53
2023/05/12 04:46:27;;;;;;;27.38;15.90;;;17.30;89.10;;;;;;3960317;29;20058;-56
2023/05/12 04:49:08;;;;;;;23.63;15.40;;;17.30;89.00;;;;;;3945796;30;20073;-52
2023/05/12 04:51:49;;;;;;;23.08;14.88;;;17.30;89.00;;;;;;3960283;29;20058;-51
2023/05/12 04:54:30;;;;;;;20.10;14.85;;;17.30;89.00;;;;;;3960268;29;20102;-53
2023/05/12 04:57:12;;;;;;;28.77;15.80;;;17.30;89.00;;;;;;3959997;29;20089;-53
2023/05/12 04:59:54;;;;;;;23.52;15.60;;;17.30;89.00;;;;;;3960210;29;20344;-50
2023/05/12 05:02:35;;;;;;;24.60;15.77;;;17.30;89.20;;;;;;3970842;29;20623;-50
2023/05/12 05:05:16;;;;;;;25.90;15.13;;;17.30;90.10;;;;;;3960275;29;20192;-52
2023/05/12 05:07:58;;;;;;;;;;;17.30;89.50;;;;;;3960316;29;20061;-51
2023/05/12 05:10:38;;;;;;;24.85;15.98;;;17.30;89.50;;;;;;3970624;29;19932;-51
2023/05/12 05:13:20;;;;;;;25.52;15.13;;;17.30;89.50;;;;;;3960016;29;20223;-50
2023/05/12 05:16:01;;;;;;;23.45;15.80;;;17.20;89.30;;;;;;3960089;29;20066;-52
2023/05/12 05:18:45;;;;;;;22.02;15.27;;;17.30;89.40;;;;;;3956823;29;20188;-50
2023/05/12 05:21:26;;;;;;;25.92;15.00;;;17.30;89.40;;;;;;3959735;29;20204;-48
2023/05/12 05:24:07;;;;;;;24.80;16.23;;;17.30;89.30;;;;;;3971107;29;20515;-53
2023/05/12 05:26:48;;;;;;;27.05;15.48;;;17.30;89.50;;;;;;3949415;29;20123;-51
2023/05/12 05:29:31;;;;;;;24.92;16.90;;;17.30;89.70;;;;;;3960470;29;20494;-51
2023/05/12 05:32:12;;;;;;;26.20;16.85;;;17.30;90.00;;;;;;3971144;29;20081;-54
2023/05/12 05:34:53;;;;;;;21.95;15.63;;;17.30;90.00;;;;;;3971331;29;20506;-49
2023/05/12 05:37:34;;;;;;;30.83;18.45;;;17.40;90.00;;;;;;3959796;29;20085;-51
2023/05/12 05:40:15;;;;;;;29.80;18.65;;;17.40;90.40;;;;;;3951909;29;20436;-50
2023/05/12 05:42:56;;;;;;;26.60;16.50;;;17.40;90.00;;;;;;3945093;29;20115;-49
2023/05/12 05:45:39;;;;;;;26.40;17.75;;;17.40;90.00;;;;;;3969901;29;20172;-52
2023/05/12 05:48:20;;;;;;;21.05;16.48;;;17.40;90.00;;;;;;3955540;29;20391;-49
2023/05/12 05:51:03;;;;;;;24.40;16.85;;;17.40;89.80;;;;;;3954880;29;20111;-47
2023/05/12 05:53:45;;;;;;;24.92;17.30;;;17.40;89.60;;;;;;3968994;29;20508;-54
2023/05/12 05:56:27;;;;;;;26.77;18.33;;;17.40;88.90;;;;;;3958858;29;20435;-49
2023/05/12 05:59:08;;;;;;;28.98;17.98;;;17.40;89.60;;;;;;3977554;29;20102;-53
2023/05/12 06:01:51;;;;;;;29.00;19.00;;;17.40;89.60;;;;;;3962792;29;20555;-60
2023/05/12 06:04:32;;;;;;;25.33;17.10;;;17.40;90.20;;;;;;3974287;29;20123;-59
2023/05/12 06:07:13;;;;;;;26.75;19.20;;;17.40;89.90;;;;;;3948296;29;20059;-60
2023/05/12 06:09:55;;;;;;;27.75;18.02;;;17.40;90.00;;;;;;3962422;29;20053;-60
2023/05/12 06:12:36;;;;;;;30.33;19.67;;;17.40;90.10;;;;;;3962363;29;20135;-60
2023/05/12 06:15:17;;;;;;;21.67;17.92;;;17.40;90.10;;;;;;3962621;29;20115;-53
2023/05/12 06:18:00;;;;;;;;;;;17.40;90.20;;;;;;3963209;29;20062;-50
2023/05/12 06:20:41;;;;;;;32.70;18.23;;;17.40;90.20;;;;;;3962162;29;20021;-50
2023/05/12 06:23:22;;;;;;;30.85;19.23;;;17.40;90.30;;;;;;3973659;29;20057;-52
2023/05/12 06:26:03;;;;;;;27.65;19.55;;;17.40;90.30;;;;;;3973655;29;20062;-48
2023/05/12 06:28:43;;;;;;;25.30;17.70;;;17.40;90.30;;;;;;3962605;29;20407;-50
2023/05/12 06:31:24;;;;;;;32.28;21.23;;;17.40;90.60;;;;;;3972011;29;20188;-47
2023/05/12 06:34:06;;;;;;;30.42;20.50;;;17.40;90.40;;;;;;3973019;29;20061;-52
2023/05/12 06:36:47;;;;;;;31.65;22.40;;;17.40;90.30;;;;;;3977074;29;20073;-50
2023/05/12 06:39:28;;;;;;;29.80;20.85;;;17.40;90.20;;;;;;3958744;30;20074;-50
2023/05/12 06:42:10;;;;;;;33.05;22.23;;;17.40;90.20;;;;;;3958523;29;20066;-52
2023/05/12 06:44:54;;;;;;;31.95;22.48;;;17.40;90.30;;;;;;3947589;30;20392;-49
2023/05/12 06:47:35;;;;;;;33.80;22.93;;;17.40;90.30;;;;;;3966248;29;20061;-53
2023/05/12 06:50:18;;;;;;;33.08;22.65;;;17.40;90.30;;;;;;3973232;29;20057;-53
2023/05/12 06:53:05;;;;;;;34.33;23.83;;;17.40;90.30;;;;;;3961974;29;20062;-52
2023/05/12 06:55:46;;;;;;;31.05;22.42;;;17.40;90.40;;;;;;3973500;29;20078;-50
2023/05/12 06:58:26;;;;;;;38.35;24.65;;;17.40;90.40;;;;;;3973169;29;20629;-49
2023/05/12 07:01:08;;;;;;;33.78;24.60;;;17.40;90.40;;;;;;3972545;29;20058;-52
2023/05/12 07:03:48;;;;;;;40.25;25.90;;;17.40;90.40;;;;;;3972342;29;20078;-52
2023/05/12 07:06:33;;;;;;;39.78;25.85;;;17.40;90.50;;;;;;3971183;29;20072;-52
2023/05/12 07:09:14;;;;;;;39.58;27.13;;;17.40;90.50;;;;;;3957358;29;20407;-52
2023/05/12 07:11:54;;;;;;;40.47;28.15;;;17.50;90.70;;;;;;3983626;29;20125;-53
2023/05/12 07:14:36;;;;;;;39.85;29.75;;;17.50;90.80;;;;;;3986897;29;20530;-50
2023/05/12 07:17:16;;;;;;;41.75;28.95;;;17.50;91.20;;;;;;3972482;29;20130;-50
2023/05/12 07:19:57;;;;;;;40.55;30.10;;;17.50;90.80;;;;;;3972647;29;20766;-51
2023/05/12 07:22:40;;;;;;;47.20;34.53;;;17.50;90.80;;;;;;3972653;29;20070;-51
2023/05/12 07:25:21;;;;;;;46.20;34.90;;;17.50;90.90;;;;;;3972716;29;20066;-51
2023/05/12 07:28:02;;;;;;;53.33;37.30;;;17.50;90.90;;;;;;3971426;29;20070;-50
2023/05/12 07:30:43;;;;;;;50.70;37.97;;;17.50;91.10;;;;;;3972437;29;20200;-49
2023/05/12 07:33:24;;;;;;;51.90;36.88;;;17.50;91.10;;;;;;3972534;29;20062;-50
2023/05/12 07:36:07;;;;;;;51.42;35.15;;;17.50;91.10;;;;;;3966483;29;20069;-47
2023/05/12 07:38:49;;;;;;;46.00;34.28;;;17.50;91.10;;;;;;3972164;29;20196;-49
2023/05/12 07:41:30;;;;;;;48.30;35.50;;;17.50;91.20;;;;;;3972214;29;20057;-60
2023/05/12 07:44:15;;;;;;;47.35;37.30;;;17.50;91.20;;;;;;3972394;29;20103;-57
2023/05/12 07:46:56;;;;;;;50.80;36.67;;;17.50;91.30;;;;;;3971912;29;20098;-59
2023/05/12 07:49:37;;;;;;;49.30;37.83;;;17.60;91.30;;;;;;3972037;29;20411;-59
2023/05/12 07:52:18;;;;;;;50.78;36.58;;;17.60;91.40;;;;;;3971110;29;20208;-59
2023/05/12 07:55:00;;;;;;;46.60;34.05;;;17.50;91.50;;;;;;3970064;29;20204;-52
2023/05/12 07:57:41;;;;;;;45.97;35.40;;;17.50;91.50;;;;;;3957848;29;20100;-50
2023/05/12 08:00:23;;;;;;;46.85;33.90;;;17.60;91.50;;;;;;3968850;29;20057;-54
2023/05/12 08:03:05;;;;;;;45.25;32.38;;;17.60;91.60;;;;;;3967590;29;20073;-52
2023/05/12 08:05:46;;;;;;;42.28;33.42;;;17.60;91.70;;;;;;3969432;29;20062;-52
2023/05/12 08:08:26;;;;;;;40.95;30.13;;;17.60;92.10;;;;;;3968187;29;20054;-52
2023/05/12 08:11:10;;;;;;;36.95;29.45;;;17.60;91.80;;;;;;3969600;29;20069;-49
2023/05/12 08:13:50;;;;;;;43.58;31.13;;;17.60;91.80;;;;;;3969364;29;20062;-50
2023/05/12 08:16:31;;;;;;;39.40;29.77;;;17.60;91.80;;;;;;3969184;29;20071;-51
2023/05/12 08:19:12;;;;;;;38.92;29.95;;;17.60;91.70;;;;;;3969587;29;20065;-53
2023/05/12 08:21:53;;;;;;;38.05;29.45;;;17.60;91.90;;;;;;3969116;29;20060;-52
2023/05/12 08:24:34;;;;;;;37.67;28.83;;;17.60;92.30;;;;;;3968568;29;20119;-52
2023/05/12 08:27:16;;;;;;;37.95;28.83;;;17.70;91.90;;;;;;3969040;29;20150;-52
2023/05/12 08:29:57;;;;;;;37.10;28.98;;;17.70;92.30;;;;;;3968892;29;20057;-48
2023/05/12 08:32:38;;;;;;;38.03;29.40;;;17.70;91.80;;;;;;3960023;29;20082;-51
2023/05/12 08:35:19;;;;;;;34.75;28.95;;;17.70;92.00;;;;;;3968823;29;20415;-48
2023/05/12 08:38:01;;;;;;;35.95;28.33;;;17.80;92.10;;;;;;3967897;29;20521;-48
2023/05/12 08:40:47;;;;;;;36.20;29.15;;;17.80;92.00;;;;;;3968335;29;20094;-47
2023/05/12 08:43:37;;;;;;;38.97;31.58;;;17.80;92.00;;;;;;3957510;29;20131;-53
2023/05/12 08:46:19;;;;;;;37.22;29.38;;;17.90;92.50;;;;;;3968227;29;20074;-53
2023/05/12 08:49:02;;;;;;;43.50;31.88;;;17.90;92.10;;;;;;3968178;29;20518;-59
2023/05/12 08:51:44;;;;;;;37.67;30.88;;;17.90;91.90;;;;;;3968996;29;20061;-59
2023/05/12 08:54:30;;;;;;;32.80;27.20;;;18.00;91.80;;;;;;3968156;29;20071;-60
2023/05/12 08:57:11;;;;;;;31.65;25.20;;;18.10;91.80;;;;;;3956996;29;20403;-57
2023/05/12 08:59:56;;;;;;;27.17;22.88;;;18.10;91.70;;;;;;3968637;29;20058;-58
2023/05/12 09:02:39;;;;;;;29.40;25.35;;;18.20;91.60;;;;;;3969148;29;20730;-55
2023/05/12 09:05:33;;;;;;;26.20;23.08;;;18.20;91.30;;;;;;3968565;29;20440;-57
2023/05/12 09:08:14;;;;;;;30.35;23.02;;;18.30;91.20;;;;;;3967371;29;20135;-57
2023/05/12 09:10:56;;;;;;;25.00;22.33;;;18.30;91.00;;;;;;3968705;29;20054;-56
2023/05/12 09:13:45;;;;;;;26.77;22.55;;;18.40;90.90;;;;;;3967847;29;20066;-59
2023/05/12 09:16:30;;;;;;;26.98;23.73;;;18.40;90.80;;;;;;3967703;29;20117;-59
2023/05/12 09:19:11;;;;;;;26.98;23.08;;;18.50;90.50;;;;;;3968537;29;20110;-58
2023/05/12 09:21:53;;;;;;;23.95;21.42;;;18.50;90.40;;;;;;3968777;29;20069;-54
2023/05/12 09:24:35;;;;;;;24.98;21.30;;;18.60;90.50;;;;;;3968375;29;20078;-57
2023/05/12 09:27:24;;;;;;;24.05;20.70;;;18.60;90.60;;;;;;3968106;29;20057;-56
2023/05/12 09:30:07;;;;;;;24.40;20.80;;;18.60;90.30;;;;;;3968287;29;20057;-58
2023/05/12 09:32:49;;;;;;;24.48;21.10;;;18.70;90.20;;;;;;3968508;29;20061;-56
2023/05/12 09:35:30;;;;;;;25.15;20.58;;;18.80;90.30;;;;;;3968384;29;20166;-55
2023/05/12 09:38:12;;;;;;;24.27;21.67;;;18.80;90.10;;;;;;3968276;29;20062;-57
2023/05/12 09:40:53;;;;;;;25.02;20.92;;;18.90;90.00;;;;;;3967553;29;20070;-55
2023/05/12 09:43:36;;;;;;;25.70;22.15;;;18.90;90.40;;;;;;3968705;29;20199;-56
2023/05/12 09:46:17;;;;;;;24.27;20.73;;;19.00;90.00;;;;;;3968350;29;20069;-57
2023/05/12 09:49:01;;;;;;;23.75;21.30;;;19.00;89.90;;;;;;3968309;29;20053;-57
2023/05/12 09:51:42;;;;;;;20.40;18.20;;;19.10;89.80;;;;;;3967013;29;20086;-57
2023/05/12 09:54:27;;;;;;;22.38;20.17;;;19.20;89.40;;;;;;3968282;29;20053;-56
2023/05/12 09:57:11;;;;;;;26.25;20.30;;;19.20;88.50;;;;;;3967464;29;20107;-57
2023/05/12 09:59:52;;;;;;;24.65;20.45;;;19.20;89.20;;;;;;3968355;29;20058;-57
2023/05/12 10:02:35;;;;;;;23.23;20.77;;;19.30;88.20;;;;;;3968075;29;20057;-57
2023/05/12 10:05:21;;;;;;;23.33;20.33;;;19.30;88.80;;;;;;3967968;29;20066;-56
2023/05/12 10:08:04;;;;;;;23.73;21.30;;;19.40;87.70;;;;;;3967596;29;20456;-57
2023/05/12 10:10:49;;;;;;;25.17;21.90;;;19.40;87.70;;;;;;3968208;29;20066;-46
2023/05/12 10:13:31;;;;;;;23.83;20.27;;;19.40;87.70;;;;;;3967440;29;20509;-51
2023/05/12 10:16:12;;;;;;;22.70;20.40;;;19.50;87.60;;;;;;3967910;29;20070;-49
2023/05/12 10:18:54;;;;;;;22.48;20.17;;;19.50;88.60;;;;;;3967597;29;20058;-51
2023/05/12 10:21:37;;;;;;;23.77;20.73;;;19.60;88.50;;;;;;3967069;29;20058;-49
2023/05/12 10:24:18;;;;;;;23.77;21.17;;;19.60;87.40;;;;;;3967861;29;20062;-52
2023/05/12 10:27:02;;;;;;;24.70;21.83;;;19.60;87.30;;;;;;3968124;29;20058;-49
2023/05/12 10:29:44;;;;;;;19.92;17.75;;;19.70;87.30;;;;;;3967973;29;20119;-48
2023/05/12 10:32:25;;;;;;;20.02;17.83;;;19.70;87.00;;;;;;3966637;29;20062;-51
2023/05/12 10:35:08;;;;;;;20.55;17.40;;;19.70;86.90;;;;;;3961722;29;20509;-52
2023/05/12 10:37:51;;;;;;;18.52;16.63;;;19.70;86.90;;;;;;3968326;29;20215;-46
2023/05/12 10:40:31;;;;;;;19.25;17.17;;;19.80;86.80;;;;;;3968235;29;20087;-47
2023/05/12 10:43:21;;;;;;;19.15;17.25;;;19.80;86.60;;;;;;3969595;29;20087;-51
2023/05/12 10:46:17;;;;;;;18.40;16.50;;;19.80;86.70;;;;;;3970630;29;20540;-55
2023/05/12 10:49:02;;;;;;;16.35;14.85;;;19.90;86.60;;;;;;3970397;29;20066;-57
2023/05/12 10:51:49;;;;;;;18.23;16.33;;;19.90;86.20;;;;;;3969461;29;20522;-55
2023/05/12 10:54:39;;;;;;;15.82;14.20;;;19.90;86.10;;;;;;3958164;29;20062;-55
2023/05/12 10:57:20;;;;;;;14.57;13.07;;;20.00;85.60;;;;;;3969899;29;20078;-55
2023/05/12 11:00:02;;;;;;;17.55;14.13;;;20.00;84.90;;;;;;3970292;29;20058;-52
2023/05/12 11:02:50;;;;;;;14.75;13.35;;;20.10;84.90;;;;;;3969179;29;20058;-50
2023/05/12 11:05:34;;;;;;;13.88;12.43;;;20.00;84.40;;;;;;3970176;29;20057;-53
2023/05/12 11:08:16;;;;;;;14.73;11.50;;;20.10;84.40;;;;;;3969842;29;20583;-53
2023/05/12 11:10:59;;;;;;;13.20;11.88;;;20.10;84.80;;;;;;3971507;29;20104;-51
2023/05/12 11:13:41;;;;;;;11.55;10.50;;;20.10;84.70;;;;;;3972258;29;20150;-52
2023/05/12 11:16:23;;;;;;;14.18;11.27;;;20.20;84.30;;;;;;3963899;29;20204;-50
2023/05/12 11:19:05;;;;;;;11.18;10.18;;;20.20;84.00;;;;;;3971765;29;20057;-48
2023/05/12 11:21:47;;;;;;;11.07;9.98;;;20.20;83.40;;;;;;3972722;29;20115;-49
2023/05/12 11:24:28;;;;;;;12.50;11.25;;;20.30;83.90;;;;;;3972898;29;20057;-49
2023/05/12 11:27:15;;;;;;;10.73;9.63;;;20.30;83.70;;;;;;3958894;29;20069;-51
2023/05/12 11:29:57;;;;;;;11.05;9.90;;;20.30;84.40;;;;;;3972384;29;20058;-52
2023/05/12 11:32:38;;;;;;;12.70;11.60;;;20.30;83.70;;;;;;3971283;29;20081;-54
2023/05/12 11:35:21;;;;;;;8.38;7.65;;;20.40;83.50;;;;;;3972304;29;20054;-55
2023/05/12 11:38:02;;;;;;;6.20;5.63;;;20.40;82.80;;;;;;3972264;29;20514;-54
2023/05/12 11:40:43;;;;;;;;;;;20.40;81.90;;;;;;3972985;29;20134;-56
2023/05/12 11:43:28;;;;;;;6.40;5.90;;;20.40;81.50;;;;;;3957697;29;19936;-52
2023/05/12 11:46:09;;;;;;;6.95;6.18;;;20.50;81.40;;;;;;3957422;29;20087;-54
2023/05/12 11:48:55;;;;;;;6.43;5.93;;;20.40;80.10;;;;;;3957169;29;20057;-53
2023/05/12 11:51:36;;;;;;;7.20;6.63;;;20.50;80.10;;;;;;3956466;29;20151;-55
2023/05/12 11:54:17;;;;;;;6.50;6.00;;;20.50;80.00;;;;;;3957507;29;20143;-54
2023/05/12 11:57:00;;;;;;;6.28;5.72;;;20.50;79.10;;;;;;3957185;29;20050;-55
2023/05/12 11:59:42;;;;;;;5.30;4.90;;;20.60;79.60;;;;;;3969908;29;20057;-56
2023/05/12 12:02:23;;;;;;;6.13;5.55;;;20.60;78.10;;;;;;3972297;29;20191;-54
2023/05/12 12:05:04;;;;;;;8.23;7.28;;;20.60;77.80;;;;;;3971826;29;20423;-56
2023/05/12 12:07:48;;;;;;;7.18;6.53;;;20.60;78.40;;;;;;3960623;29;20053;-49
2023/05/12 12:10:29;;;;;;;4.73;4.33;;;20.70;78.30;;;;;;3971435;29;20626;-51
2023/05/12 12:13:10;;;;;;;4.82;4.38;;;20.70;78.70;;;;;;3971843;29;20319;-50
2023/05/12 12:15:53;;;;;;;4.30;3.90;;;20.70;77.20;;;;;;3971857;29;20066;-46
2023/05/12 12:18:34;;;;;;;4.25;3.33;;;20.70;77.30;;;;;;3971442;29;20057;-50
2023/05/12 12:21:15;;;;;;;3.83;3.53;;;20.80;74.60;;;;;;3960855;29;20058;-48
2023/05/12 12:23:58;;;;;;;6.00;4.07;;;20.70;73.50;;;;;;3971456;29;20522;-46
2023/05/12 12:26:39;;;;;;;4.63;3.75;;;20.80;73.10;;;;;;3971461;29;20064;-51
2023/05/12 12:29:22;;;;;;;4.43;4.00;;;20.80;73.50;;;;;;3971965;29;20058;-50
2023/05/12 12:32:05;;;;;;;4.10;3.80;;;20.80;73.30;;;;;;3960337;29;20065;-50
2023/05/12 12:34:47;;;;;;;3.83;3.53;;;20.90;74.00;;;;;;3971697;29;20058;-52
2023/05/12 12:37:28;;;;;;;4.13;3.72;;;20.90;72.50;;;;;;3971341;29;20066;-51
2023/05/12 12:40:10;;;;;;;3.95;3.65;;;20.90;72.40;;;;;;3971694;29;20069;-47
2023/05/12 12:42:51;;;;;;;4.07;3.67;;;20.90;72.40;;;;;;3971322;29;20058;-53
2023/05/12 12:45:32;;;;;;;3.33;3.10;;;20.90;72.00;;;;;;3971517;29;20058;-49
2023/05/12 12:48:15;;;;;;;3.08;2.88;;;21.00;72.60;;;;;;3960068;29;20153;-52
2023/05/12 12:50:56;;;;;;;4.05;3.15;;;21.00;70.90;;;;;;3971332;29;20053;-51
2023/05/12 12:53:37;;;;;;;2.80;2.70;;;21.00;70.60;;;;;;3971168;29;20065;-50
2023/05/12 12:56:18;;;;;;;3.15;2.95;;;21.10;71.00;;;;;;3971366;29;20069;-48
2023/05/12 12:58:59;;;;;;;6.78;3.42;;;21.10;69.70;;;;;;3968258;29;20065;-53
2023/05/12 13:01:40;;;;;;;3.08;2.80;;;21.10;69.50;;;;;;3971306;29;20134;-49
2023/05/12 13:04:22;;;;;;;;;;;21.10;69.20;;;;;;3970578;29;20124;-47
2023/05/12 13:07:04;;;;;;;2.25;2.15;;;21.20;68.50;;;;;;3969824;29;19936;-46
2023/05/12 13:09:45;;;;;;;;;;;21.20;67.30;;;;;;3971345;29;20061;-46
2023/05/12 13:12:27;;;;;;;2.58;2.47;;;21.20;67.80;;;;;;3944712;29;19932;-47
2023/05/12 13:15:09;;;;;;;3.13;2.42;;;21.20;66.00;;;;;;3965880;29;20127;-46
2023/05/12 13:17:50;;;;;;;3.70;2.30;;;21.30;65.10;;;;;;3963109;29;20073;-50
2023/05/12 13:20:33;;;;;;;2.80;2.33;;;21.30;66.40;;;;;;3973863;29;20092;-48
2023/05/12 13:23:13;;;;;;;2.63;2.15;;;21.30;64.60;;;;;;3985936;29;20073;-52
2023/05/12 13:25:54;;;;;;;4.40;2.53;;;21.30;64.10;;;;;;3971616;29;20161;-51
2023/05/12 13:28:36;;;;;;;2.65;2.00;;;21.40;64.10;;;;;;3970791;29;20057;-49
2023/05/12 13:31:16;;;;;;;2.50;2.30;;;21.40;63.40;;;;;;3970858;29;20570;-50
2023/05/12 13:33:57;;;;;;;2.67;2.47;;;21.40;64.20;;;;;;3970906;29;20521;-50
2023/05/12 13:36:40;;;;;;;3.10;2.10;;;21.50;63.30;;;;;;3970180;29;20065;-52
2023/05/12 13:39:21;;;;;;;3.85;2.42;;;21.50;63.90;;;;;;3955800;29;20491;-50
2023/05/12 13:42:03;;;;;;;2.38;2.28;;;21.50;64.10;;;;;;3955952;29;20062;-50
2023/05/12 13:44:44;;;;;;;4.00;1.98;;;21.50;64.40;;;;;;3961610;29;20062;-51
2023/05/12 13:47:24;;;;;;;2.13;2.00;;;21.50;63.60;;;;;;3970717;29;20075;-51